sensor_id;sensor_type;location;lat;lon;timestamp;P1;durP1;ratioP1;P2;durP2;ratioP2
13331;SDS011;6735;51.456;12.626;2023-05-29T00:00:10;8.07;;;5.90;;
13331;SDS011;6735;51.456;12.626;2023-05-29T00:02:38;6.63;;;6.03;;
13331;SDS011;6735;51.456;12.626;2023-05-29T00:05:03;7.00;;;5.40;;
13331;SDS011;6735;51.456;12.626;2023-05-29T00:07:30;7.07;;;5.50;;
13331;SDS011;6735;51.456;12.626;2023-05-29T00:09:57;7.63;;;5.90;;
13331;SDS011;6735;51.456;12.626;2023-05-29T00:12:23;7.80;;;5.50;;
13331;SDS011;6735;51.456;12.626;2023-05-29T00:14:49;6.17;;;5.57;;
13331;SDS011;6735;51.456;12.626;2023-05-29T00:17:14;7.30;;;5.33;;
13331;SDS011;6735;51.456;12.626;2023-05-29T00:19:41;9.07;;;5.00;;
13331;SDS011;6735;51.456;12.626;2023-05-29T00:22:07;5.33;;;4.90;;
13331;SDS011;6735;51.456;12.626;2023-05-29T00:24:33;6.00;;;5.33;;
13331;SDS011;6735;51.456;12.626;2023-05-29T00:26:58;5.80;;;5.20;;
13331;SDS011;6735;51.456;12.626;2023-05-29T00:29:24;5.80;;;5.20;;
13331;SDS011;6735;51.456;12.626;2023-05-29T00:31:50;6.73;;;5.37;;
13331;SDS011;6735;51.456;12.626;2023-05-29T00:34:18;5.67;;;5.03;;
13331;SDS011;6735;51.456;12.626;2023-05-29T00:36:44;6.10;;;5.20;;
13331;SDS011;6735;51.456;12.626;2023-05-29T00:39:10;5.23;;;4.73;;
13331;SDS011;6735;51.456;12.626;2023-05-29T00:41:35;6.90;;;5.10;;
13331;SDS011;6735;51.456;12.626;2023-05-29T00:44:01;7.03;;;5.17;;
13331;SDS011;6735;51.456;12.626;2023-05-29T00:46:27;5.93;;;5.20;;
13331;SDS011;6735;51.456;12.626;2023-05-29T00:48:53;6.77;;;4.97;;
13331;SDS011;6735;51.456;12.626;2023-05-29T00:51:18;6.97;;;5.17;;
13331;SDS011;6735;51.456;12.626;2023-05-29T00:53:44;5.67;;;4.93;;
13331;SDS011;6735;51.456;12.626;2023-05-29T00:56:10;6.63;;;5.40;;
13331;SDS011;6735;51.456;12.626;2023-05-29T00:58:37;6.00;;;5.40;;
13331;SDS011;6735;51.456;12.626;2023-05-29T01:01:03;6.70;;;5.60;;
13331;SDS011;6735;51.456;12.626;2023-05-29T01:03:28;6.23;;;4.90;;
13331;SDS011;6735;51.456;12.626;2023-05-29T01:05:54;5.60;;;5.10;;
13331;SDS011;6735;51.456;12.626;2023-05-29T01:08:20;5.30;;;4.80;;
13331;SDS011;6735;51.456;12.626;2023-05-29T01:10:45;5.63;;;5.13;;
13331;SDS011;6735;51.456;12.626;2023-05-29T01:13:17;6.20;;;4.70;;
13331;SDS011;6735;51.456;12.626;2023-05-29T01:15:48;5.60;;;4.97;;
13331;SDS011;6735;51.456;12.626;2023-05-29T01:18:23;5.87;;;5.20;;
13331;SDS011;6735;51.456;12.626;2023-05-29T01:21:01;6.47;;;5.47;;
13331;SDS011;6735;51.456;12.626;2023-05-29T01:23:43;7.40;;;4.90;;
13331;SDS011;6735;51.456;12.626;2023-05-29T01:29:22;6.20;;;5.30;;
13331;SDS011;6735;51.456;12.626;2023-05-29T01:31:51;6.43;;;5.10;;
13331;SDS011;6735;51.456;12.626;2023-05-29T01:34:17;5.57;;;4.87;;
13331;SDS011;6735;51.456;12.626;2023-05-29T01:36:43;5.77;;;5.10;;
13331;SDS011;6735;51.456;12.626;2023-05-29T01:39:08;6.87;;;5.73;;
13331;SDS011;6735;51.456;12.626;2023-05-29T01:41:35;5.90;;;4.83;;
13331;SDS011;6735;51.456;12.626;2023-05-29T01:44:04;6.73;;;4.80;;
13331;SDS011;6735;51.456;12.626;2023-05-29T01:46:33;5.93;;;5.37;;
13331;SDS011;6735;51.456;12.626;2023-05-29T01:49:00;6.00;;;5.40;;
13331;SDS011;6735;51.456;12.626;2023-05-29T01:51:26;7.10;;;5.67;;
13331;SDS011;6735;51.456;12.626;2023-05-29T01:53:51;6.90;;;5.47;;
13331;SDS011;6735;51.456;12.626;2023-05-29T01:56:17;6.53;;;5.87;;
13331;SDS011;6735;51.456;12.626;2023-05-29T01:58:43;8.43;;;5.80;;
13331;SDS011;6735;51.456;12.626;2023-05-29T02:01:09;6.90;;;5.33;;
13331;SDS011;6735;51.456;12.626;2023-05-29T02:03:36;6.97;;;5.70;;
13331;SDS011;6735;51.456;12.626;2023-05-29T02:06:01;7.13;;;5.33;;
13331;SDS011;6735;51.456;12.626;2023-05-29T02:08:27;7.80;;;5.50;;
13331;SDS011;6735;51.456;12.626;2023-05-29T02:10:53;7.10;;;5.63;;
13331;SDS011;6735;51.456;12.626;2023-05-29T02:13:18;7.70;;;5.30;;
13331;SDS011;6735;51.456;12.626;2023-05-29T02:15:44;6.07;;;5.47;;
13331;SDS011;6735;51.456;12.626;2023-05-29T02:18:10;6.27;;;5.67;;
13331;SDS011;6735;51.456;12.626;2023-05-29T02:20:37;7.27;;;5.60;;
13331;SDS011;6735;51.456;12.626;2023-05-29T02:23:03;6.50;;;5.60;;
13331;SDS011;6735;51.456;12.626;2023-05-29T02:25:29;5.80;;;5.20;;
13331;SDS011;6735;51.456;12.626;2023-05-29T02:27:54;6.07;;;5.47;;
13331;SDS011;6735;51.456;12.626;2023-05-29T02:30:19;6.53;;;5.83;;
13331;SDS011;6735;51.456;12.626;2023-05-29T02:32:45;6.73;;;5.37;;
13331;SDS011;6735;51.456;12.626;2023-05-29T02:35:11;7.27;;;5.70;;
13331;SDS011;6735;51.456;12.626;2023-05-29T02:37:39;6.17;;;5.57;;
13331;SDS011;6735;51.456;12.626;2023-05-29T02:40:08;6.13;;;5.53;;
13331;SDS011;6735;51.456;12.626;2023-05-29T02:42:34;6.57;;;5.90;;
13331;SDS011;6735;51.456;12.626;2023-05-29T02:45:00;7.63;;;5.63;;
13331;SDS011;6735;51.456;12.626;2023-05-29T02:47:26;6.47;;;5.80;;
13331;SDS011;6735;51.456;12.626;2023-05-29T02:49:51;7.33;;;5.77;;
13331;SDS011;6735;51.456;12.626;2023-05-29T02:52:16;6.57;;;5.47;;
13331;SDS011;6735;51.456;12.626;2023-05-29T02:54:42;7.27;;;5.83;;
13331;SDS011;6735;51.456;12.626;2023-05-29T02:57:07;7.03;;;6.00;;
13331;SDS011;6735;51.456;12.626;2023-05-29T02:59:33;7.53;;;6.10;;
13331;SDS011;6735;51.456;12.626;2023-05-29T03:01:58;6.37;;;5.77;;
13331;SDS011;6735;51.456;12.626;2023-05-29T03:04:24;6.20;;;5.70;;
13331;SDS011;6735;51.456;12.626;2023-05-29T03:06:49;7.50;;;6.03;;
13331;SDS011;6735;51.456;12.626;2023-05-29T03:09:17;6.90;;;6.20;;
13331;SDS011;6735;51.456;12.626;2023-05-29T03:11:43;7.63;;;6.10;;
13331;SDS011;6735;51.456;12.626;2023-05-29T03:14:09;7.07;;;5.90;;
13331;SDS011;6735;51.456;12.626;2023-05-29T03:16:35;8.17;;;6.10;;
13331;SDS011;6735;51.456;12.626;2023-05-29T03:19:00;6.70;;;6.10;;
13331;SDS011;6735;51.456;12.626;2023-05-29T03:21:26;6.63;;;5.90;;
13331;SDS011;6735;51.456;12.626;2023-05-29T03:23:52;8.53;;;6.17;;
13331;SDS011;6735;51.456;12.626;2023-05-29T03:26:17;6.87;;;6.10;;
13331;SDS011;6735;51.456;12.626;2023-05-29T03:28:43;6.90;;;6.07;;
13331;SDS011;6735;51.456;12.626;2023-05-29T03:31:08;8.50;;;6.00;;
13331;SDS011;6735;51.456;12.626;2023-05-29T03:33:35;7.07;;;5.80;;
13331;SDS011;6735;51.456;12.626;2023-05-29T03:36:01;7.53;;;5.67;;
13331;SDS011;6735;51.456;12.626;2023-05-29T03:38:26;7.50;;;5.87;;
13331;SDS011;6735;51.456;12.626;2023-05-29T03:40:51;6.97;;;6.27;;
13331;SDS011;6735;51.456;12.626;2023-05-29T03:43:17;6.10;;;5.50;;
13331;SDS011;6735;51.456;12.626;2023-05-29T03:45:42;7.97;;;6.10;;
13331;SDS011;6735;51.456;12.626;2023-05-29T03:48:08;6.63;;;5.97;;
13331;SDS011;6735;51.456;12.626;2023-05-29T03:50:33;6.77;;;6.00;;
13331;SDS011;6735;51.456;12.626;2023-05-29T03:52:59;7.13;;;5.70;;
13331;SDS011;6735;51.456;12.626;2023-05-29T03:55:25;7.70;;;6.50;;
13331;SDS011;6735;51.456;12.626;2023-05-29T03:57:51;8.30;;;6.30;;
13331;SDS011;6735;51.456;12.626;2023-05-29T04:00:17;9.93;;;6.10;;
13331;SDS011;6735;51.456;12.626;2023-05-29T04:02:43;6.80;;;5.90;;
13331;SDS011;6735;51.456;12.626;2023-05-29T04:05:08;6.30;;;5.70;;
13331;SDS011;6735;51.456;12.626;2023-05-29T04:07:35;6.80;;;6.10;;
13331;SDS011;6735;51.456;12.626;2023-05-29T04:10:04;10.77;;;6.10;;
13331;SDS011;6735;51.456;12.626;2023-05-29T04:12:31;8.50;;;6.10;;
13331;SDS011;6735;51.456;12.626;2023-05-29T04:14:57;6.40;;;5.70;;
13331;SDS011;6735;51.456;12.626;2023-05-29T04:17:23;8.20;;;6.40;;
13331;SDS011;6735;51.456;12.626;2023-05-29T04:19:48;6.53;;;5.80;;
13331;SDS011;6735;51.456;12.626;2023-05-29T04:22:14;7.43;;;6.20;;
13331;SDS011;6735;51.456;12.626;2023-05-29T04:24:40;9.00;;;6.20;;
13331;SDS011;6735;51.456;12.626;2023-05-29T04:27:07;7.73;;;5.80;;
13331;SDS011;6735;51.456;12.626;2023-05-29T04:29:33;7.77;;;6.10;;
13331;SDS011;6735;51.456;12.626;2023-05-29T04:31:59;7.10;;;6.40;;
13331;SDS011;6735;51.456;12.626;2023-05-29T04:34:28;9.83;;;6.10;;
13331;SDS011;6735;51.456;12.626;2023-05-29T04:36:55;7.43;;;6.30;;
13331;SDS011;6735;51.456;12.626;2023-05-29T04:39:23;11.73;;;5.83;;
13331;SDS011;6735;51.456;12.626;2023-05-29T04:41:49;9.47;;;6.37;;
13331;SDS011;6735;51.456;12.626;2023-05-29T04:44:15;7.03;;;6.03;;
13331;SDS011;6735;51.456;12.626;2023-05-29T04:46:40;7.83;;;6.07;;
13331;SDS011;6735;51.456;12.626;2023-05-29T04:49:09;8.53;;;6.23;;
13331;SDS011;6735;51.456;12.626;2023-05-29T04:51:38;7.73;;;6.10;;
13331;SDS011;6735;51.456;12.626;2023-05-29T04:54:05;8.20;;;6.10;;
13331;SDS011;6735;51.456;12.626;2023-05-29T04:56:31;7.27;;;5.90;;
13331;SDS011;6735;51.456;12.626;2023-05-29T04:58:57;8.13;;;5.73;;
13331;SDS011;6735;51.456;12.626;2023-05-29T05:01:23;7.83;;;5.50;;
13331;SDS011;6735;51.456;12.626;2023-05-29T05:03:49;7.30;;;5.50;;
13331;SDS011;6735;51.456;12.626;2023-05-29T05:06:15;9.10;;;5.60;;
13331;SDS011;6735;51.456;12.626;2023-05-29T05:08:41;8.50;;;5.73;;
13331;SDS011;6735;51.456;12.626;2023-05-29T05:11:07;8.13;;;5.70;;
13331;SDS011;6735;51.456;12.626;2023-05-29T05:13:32;14.13;;;5.57;;
13331;SDS011;6735;51.456;12.626;2023-05-29T05:15:58;9.10;;;5.30;;
13331;SDS011;6735;51.456;12.626;2023-05-29T05:18:24;6.93;;;5.40;;
13331;SDS011;6735;51.456;12.626;2023-05-29T05:20:49;10.63;;;5.53;;
13331;SDS011;6735;51.456;12.626;2023-05-29T05:23:15;6.67;;;5.40;;
13331;SDS011;6735;51.456;12.626;2023-05-29T05:25:40;7.90;;;5.67;;
13331;SDS011;6735;51.456;12.626;2023-05-29T05:28:06;7.47;;;5.40;;
13331;SDS011;6735;51.456;12.626;2023-05-29T05:30:33;6.67;;;5.53;;
13331;SDS011;6735;51.456;12.626;2023-05-29T05:32:58;8.10;;;5.47;;
13331;SDS011;6735;51.456;12.626;2023-05-29T05:35:24;7.00;;;5.17;;
13331;SDS011;6735;51.456;12.626;2023-05-29T05:37:50;8.23;;;5.40;;
13331;SDS011;6735;51.456;12.626;2023-05-29T05:40:15;6.30;;;5.13;;
13331;SDS011;6735;51.456;12.626;2023-05-29T05:42:41;5.90;;;5.17;;
13331;SDS011;6735;51.456;12.626;2023-05-29T05:45:07;8.10;;;5.13;;
13331;SDS011;6735;51.456;12.626;2023-05-29T05:47:33;6.97;;;5.37;;
13331;SDS011;6735;51.456;12.626;2023-05-29T05:49:58;7.60;;;5.60;;
13331;SDS011;6735;51.456;12.626;2023-05-29T05:52:24;6.40;;;5.43;;
13331;SDS011;6735;51.456;12.626;2023-05-29T05:54:55;7.23;;;5.00;;
13331;SDS011;6735;51.456;12.626;2023-05-29T05:57:20;6.57;;;5.17;;
13331;SDS011;6735;51.456;12.626;2023-05-29T05:59:46;7.00;;;5.37;;
13331;SDS011;6735;51.456;12.626;2023-05-29T06:02:11;5.87;;;5.07;;
13331;SDS011;6735;51.456;12.626;2023-05-29T06:04:37;7.07;;;5.30;;
13331;SDS011;6735;51.456;12.626;2023-05-29T06:07:02;7.70;;;4.87;;
13331;SDS011;6735;51.456;12.626;2023-05-29T06:09:28;8.40;;;6.27;;
13331;SDS011;6735;51.456;12.626;2023-05-29T06:11:53;9.53;;;5.50;;
13331;SDS011;6735;51.456;12.626;2023-05-29T06:14:20;7.17;;;5.30;;
13331;SDS011;6735;51.456;12.626;2023-05-29T06:16:45;7.80;;;5.03;;
13331;SDS011;6735;51.456;12.626;2023-05-29T06:19:11;6.57;;;5.00;;
13331;SDS011;6735;51.456;12.626;2023-05-29T06:21:37;7.07;;;5.63;;
13331;SDS011;6735;51.456;12.626;2023-05-29T06:24:02;7.97;;;5.47;;
13331;SDS011;6735;51.456;12.626;2023-05-29T06:26:28;7.30;;;5.27;;
13331;SDS011;6735;51.456;12.626;2023-05-29T06:28:53;8.17;;;5.30;;
13331;SDS011;6735;51.456;12.626;2023-05-29T06:31:19;7.27;;;5.10;;
13331;SDS011;6735;51.456;12.626;2023-05-29T06:33:45;8.10;;;5.10;;
13331;SDS011;6735;51.456;12.626;2023-05-29T06:36:11;8.53;;;5.30;;
13331;SDS011;6735;51.456;12.626;2023-05-29T06:38:36;7.87;;;4.97;;
13331;SDS011;6735;51.456;12.626;2023-05-29T06:41:02;8.17;;;5.53;;
13331;SDS011;6735;51.456;12.626;2023-05-29T06:43:28;7.10;;;4.83;;
13331;SDS011;6735;51.456;12.626;2023-05-29T06:45:53;7.60;;;4.90;;
13331;SDS011;6735;51.456;12.626;2023-05-29T06:48:19;9.87;;;5.63;;
13331;SDS011;6735;51.456;12.626;2023-05-29T06:50:45;7.63;;;5.10;;
13331;SDS011;6735;51.456;12.626;2023-05-29T06:53:12;7.63;;;4.90;;
13331;SDS011;6735;51.456;12.626;2023-05-29T06:55:37;5.73;;;4.80;;
13331;SDS011;6735;51.456;12.626;2023-05-29T06:58:05;7.10;;;4.93;;
13331;SDS011;6735;51.456;12.626;2023-05-29T07:00:31;6.93;;;5.20;;
13331;SDS011;6735;51.456;12.626;2023-05-29T07:02:56;9.30;;;5.17;;
13331;SDS011;6735;51.456;12.626;2023-05-29T07:05:21;8.40;;;4.80;;
13331;SDS011;6735;51.456;12.626;2023-05-29T07:07:47;5.70;;;4.70;;
13331;SDS011;6735;51.456;12.626;2023-05-29T07:10:13;8.23;;;5.40;;
13331;SDS011;6735;51.456;12.626;2023-05-29T07:12:38;8.83;;;5.23;;
13331;SDS011;6735;51.456;12.626;2023-05-29T07:15:04;5.57;;;4.37;;
13331;SDS011;6735;51.456;12.626;2023-05-29T07:17:30;6.13;;;4.60;;
13331;SDS011;6735;51.456;12.626;2023-05-29T07:19:55;6.63;;;4.70;;
13331;SDS011;6735;51.456;12.626;2023-05-29T07:22:21;7.77;;;4.93;;
13331;SDS011;6735;51.456;12.626;2023-05-29T07:24:46;6.47;;;5.10;;
13331;SDS011;6735;51.456;12.626;2023-05-29T07:27:12;5.70;;;4.50;;
13331;SDS011;6735;51.456;12.626;2023-05-29T07:29:37;7.03;;;4.80;;
13331;SDS011;6735;51.456;12.626;2023-05-29T07:32:03;5.60;;;4.83;;
13331;SDS011;6735;51.456;12.626;2023-05-29T07:34:28;8.03;;;4.90;;
13331;SDS011;6735;51.456;12.626;2023-05-29T07:37:04;7.37;;;4.70;;
13331;SDS011;6735;51.456;12.626;2023-05-29T07:39:31;8.90;;;4.70;;
13331;SDS011;6735;51.456;12.626;2023-05-29T07:41:58;8.77;;;4.20;;
13331;SDS011;6735;51.456;12.626;2023-05-29T07:44:24;8.83;;;4.83;;
13331;SDS011;6735;51.456;12.626;2023-05-29T07:46:50;8.67;;;5.03;;
13331;SDS011;6735;51.456;12.626;2023-05-29T07:49:15;4.83;;;4.33;;
13331;SDS011;6735;51.456;12.626;2023-05-29T07:51:41;5.57;;;4.43;;
13331;SDS011;6735;51.456;12.626;2023-05-29T07:54:07;5.53;;;4.30;;
13331;SDS011;6735;51.456;12.626;2023-05-29T07:56:32;5.10;;;4.57;;
13331;SDS011;6735;51.456;12.626;2023-05-29T07:58:58;9.43;;;5.00;;
13331;SDS011;6735;51.456;12.626;2023-05-29T08:01:24;6.37;;;4.57;;
13331;SDS011;6735;51.456;12.626;2023-05-29T08:03:51;7.57;;;4.60;;
13331;SDS011;6735;51.456;12.626;2023-05-29T08:06:16;6.43;;;4.70;;
13331;SDS011;6735;51.456;12.626;2023-05-29T08:08:42;5.73;;;4.80;;
13331;SDS011;6735;51.456;12.626;2023-05-29T08:11:08;8.03;;;4.73;;
13331;SDS011;6735;51.456;12.626;2023-05-29T08:13:33;6.80;;;4.30;;
13331;SDS011;6735;51.456;12.626;2023-05-29T08:15:59;7.50;;;4.60;;
13331;SDS011;6735;51.456;12.626;2023-05-29T08:18:25;6.47;;;4.70;;
13331;SDS011;6735;51.456;12.626;2023-05-29T08:20:51;6.03;;;4.37;;
13331;SDS011;6735;51.456;12.626;2023-05-29T08:23:20;5.23;;;4.30;;
13331;SDS011;6735;51.456;12.626;2023-05-29T08:25:46;6.90;;;3.97;;
13331;SDS011;6735;51.456;12.626;2023-05-29T08:28:12;8.70;;;4.37;;
13331;SDS011;6735;51.456;12.626;2023-05-29T08:30:38;6.03;;;4.63;;
13331;SDS011;6735;51.456;12.626;2023-05-29T08:33:04;7.63;;;4.93;;
13331;SDS011;6735;51.456;12.626;2023-05-29T08:35:29;6.03;;;4.60;;
13331;SDS011;6735;51.456;12.626;2023-05-29T08:37:55;5.03;;;4.07;;
13331;SDS011;6735;51.456;12.626;2023-05-29T08:40:20;4.83;;;3.90;;
13331;SDS011;6735;51.456;12.626;2023-05-29T08:42:47;5.70;;;4.10;;
13331;SDS011;6735;51.456;12.626;2023-05-29T08:45:15;6.30;;;4.13;;
13331;SDS011;6735;51.456;12.626;2023-05-29T08:47:44;8.47;;;4.20;;
13331;SDS011;6735;51.456;12.626;2023-05-29T08:50:11;5.77;;;4.37;;
13331;SDS011;6735;51.456;12.626;2023-05-29T08:52:37;6.57;;;4.10;;
13331;SDS011;6735;51.456;12.626;2023-05-29T08:55:04;5.87;;;4.37;;
13331;SDS011;6735;51.456;12.626;2023-05-29T08:57:30;8.67;;;4.47;;
13331;SDS011;6735;51.456;12.626;2023-05-29T08:59:56;4.20;;;3.80;;
13331;SDS011;6735;51.456;12.626;2023-05-29T09:02:22;6.23;;;4.07;;
13331;SDS011;6735;51.456;12.626;2023-05-29T09:04:47;6.13;;;4.07;;
13331;SDS011;6735;51.456;12.626;2023-05-29T09:07:21;5.53;;;4.10;;
13331;SDS011;6735;51.456;12.626;2023-05-29T09:09:47;6.73;;;4.20;;
13331;SDS011;6735;51.456;12.626;2023-05-29T09:12:13;5.77;;;4.00;;
13331;SDS011;6735;51.456;12.626;2023-05-29T09:14:40;5.07;;;4.10;;
13331;SDS011;6735;51.456;12.626;2023-05-29T09:17:08;7.83;;;4.70;;
13331;SDS011;6735;51.456;12.626;2023-05-29T09:19:35;6.43;;;4.10;;
13331;SDS011;6735;51.456;12.626;2023-05-29T09:22:04;8.53;;;4.50;;
13331;SDS011;6735;51.456;12.626;2023-05-29T09:24:31;5.47;;;4.10;;
13331;SDS011;6735;51.456;12.626;2023-05-29T09:26:58;5.17;;;3.97;;
13331;SDS011;6735;51.456;12.626;2023-05-29T09:29:24;6.23;;;4.27;;
13331;SDS011;6735;51.456;12.626;2023-05-29T09:31:50;5.77;;;4.23;;
13331;SDS011;6735;51.456;12.626;2023-05-29T09:34:16;6.20;;;4.20;;
13331;SDS011;6735;51.456;12.626;2023-05-29T09:36:41;6.47;;;4.10;;
13331;SDS011;6735;51.456;12.626;2023-05-29T09:39:07;5.50;;;4.17;;
13331;SDS011;6735;51.456;12.626;2023-05-29T09:41:42;7.37;;;4.07;;
13331;SDS011;6735;51.456;12.626;2023-05-29T09:44:10;8.97;;;4.63;;
13331;SDS011;6735;51.456;12.626;2023-05-29T09:46:38;5.70;;;4.13;;
13331;SDS011;6735;51.456;12.626;2023-05-29T09:49:08;4.87;;;3.70;;
13331;SDS011;6735;51.456;12.626;2023-05-29T09:51:37;5.37;;;3.97;;
13331;SDS011;6735;51.456;12.626;2023-05-29T09:54:13;4.67;;;3.67;;
13331;SDS011;6735;51.456;12.626;2023-05-29T09:56:40;6.60;;;3.63;;
13331;SDS011;6735;51.456;12.626;2023-05-29T09:59:08;5.37;;;3.77;;
13331;SDS011;6735;51.456;12.626;2023-05-29T10:01:42;7.10;;;3.90;;
13331;SDS011;6735;51.456;12.626;2023-05-29T10:04:11;5.47;;;4.37;;
13331;SDS011;6735;51.456;12.626;2023-05-29T10:06:37;4.60;;;3.47;;
13331;SDS011;6735;51.456;12.626;2023-05-29T10:09:07;5.60;;;3.87;;
13331;SDS011;6735;51.456;12.626;2023-05-29T10:11:38;5.80;;;3.90;;
13331;SDS011;6735;51.456;12.626;2023-05-29T10:14:07;6.00;;;3.90;;
13331;SDS011;6735;51.456;12.626;2023-05-29T10:16:36;4.20;;;3.80;;
13331;SDS011;6735;51.456;12.626;2023-05-29T10:19:07;8.00;;;5.70;;
13331;SDS011;6735;51.456;12.626;2023-05-29T10:21:37;5.80;;;4.40;;
13331;SDS011;6735;51.456;12.626;2023-05-29T10:24:05;6.27;;;3.73;;
13331;SDS011;6735;51.456;12.626;2023-05-29T10:26:32;6.40;;;4.00;;
13331;SDS011;6735;51.456;12.626;2023-05-29T10:29:07;4.80;;;3.53;;
13331;SDS011;6735;51.456;12.626;2023-05-29T10:34:56;6.23;;;3.80;;
13331;SDS011;6735;51.456;12.626;2023-05-29T10:40:41;3.63;;;3.33;;
13331;SDS011;6735;51.456;12.626;2023-05-29T10:43:07;4.53;;;3.63;;
13331;SDS011;6735;51.456;12.626;2023-05-29T10:50:35;5.20;;;3.40;;
13331;SDS011;6735;51.456;12.626;2023-05-29T10:53:06;4.67;;;3.60;;
13331;SDS011;6735;51.456;12.626;2023-05-29T10:55:39;4.53;;;3.40;;
13331;SDS011;6735;51.456;12.626;2023-05-29T10:58:10;4.37;;;3.43;;
13331;SDS011;6735;51.456;12.626;2023-05-29T11:00:41;3.60;;;3.20;;
13331;SDS011;6735;51.456;12.626;2023-05-29T11:03:08;4.00;;;3.67;;
13331;SDS011;6735;51.456;12.626;2023-05-29T11:05:34;5.40;;;4.90;;
13331;SDS011;6735;51.456;12.626;2023-05-29T11:08:00;5.07;;;3.67;;
13331;SDS011;6735;51.456;12.626;2023-05-29T11:10:42;5.40;;;3.83;;
13331;SDS011;6735;51.456;12.626;2023-05-29T11:13:34;5.63;;;3.63;;
13331;SDS011;6735;51.456;12.626;2023-05-29T11:16:35;4.87;;;3.37;;
13331;SDS011;6735;51.456;12.626;2023-05-29T11:18:50;4.73;;;3.80;;
13331;SDS011;6735;51.456;12.626;2023-05-29T11:24:24;6.20;;;3.60;;
13331;SDS011;6735;51.456;12.626;2023-05-29T11:26:55;5.00;;;3.53;;
13331;SDS011;6735;51.456;12.626;2023-05-29T11:29:22;4.23;;;3.57;;
13331;SDS011;6735;51.456;12.626;2023-05-29T11:31:58;4.03;;;3.47;;
13331;SDS011;6735;51.456;12.626;2023-05-29T11:34:30;4.40;;;4.00;;
13331;SDS011;6735;51.456;12.626;2023-05-29T11:36:57;6.33;;;3.47;;
13331;SDS011;6735;51.456;12.626;2023-05-29T11:39:26;4.90;;;3.50;;
13331;SDS011;6735;51.456;12.626;2023-05-29T11:41:51;4.27;;;3.50;;
13331;SDS011;6735;51.456;12.626;2023-05-29T11:44:18;5.57;;;3.73;;
13331;SDS011;6735;51.456;12.626;2023-05-29T11:46:44;3.90;;;3.50;;
13331;SDS011;6735;51.456;12.626;2023-05-29T11:49:09;5.00;;;3.40;;
13331;SDS011;6735;51.456;12.626;2023-05-29T11:51:35;4.97;;;3.10;;
13331;SDS011;6735;51.456;12.626;2023-05-29T11:54:01;5.93;;;3.40;;
13331;SDS011;6735;51.456;12.626;2023-05-29T11:56:27;4.07;;;3.50;;
13331;SDS011;6735;51.456;12.626;2023-05-29T11:58:53;4.30;;;3.53;;
13331;SDS011;6735;51.456;12.626;2023-05-29T12:01:24;4.93;;;3.67;;
13331;SDS011;6735;51.456;12.626;2023-05-29T12:03:50;8.53;;;4.20;;
13331;SDS011;6735;51.456;12.626;2023-05-29T12:06:16;5.33;;;4.03;;
13331;SDS011;6735;51.456;12.626;2023-05-29T12:08:59;4.23;;;3.13;;
13331;SDS011;6735;51.456;12.626;2023-05-29T12:11:25;5.60;;;3.50;;
13331;SDS011;6735;51.456;12.626;2023-05-29T12:14:00;6.53;;;4.03;;
13331;SDS011;6735;51.456;12.626;2023-05-29T12:16:26;4.53;;;4.00;;
13331;SDS011;6735;51.456;12.626;2023-05-29T12:18:54;5.13;;;3.60;;
13331;SDS011;6735;51.456;12.626;2023-05-29T12:21:21;4.10;;;3.70;;
13331;SDS011;6735;51.456;12.626;2023-05-29T12:23:47;4.03;;;3.53;;
13331;SDS011;6735;51.456;12.626;2023-05-29T12:26:12;4.00;;;3.60;;
13331;SDS011;6735;51.456;12.626;2023-05-29T12:28:44;4.53;;;3.80;;
13331;SDS011;6735;51.456;12.626;2023-05-29T12:31:10;4.73;;;3.83;;
13331;SDS011;6735;51.456;12.626;2023-05-29T12:33:36;9.27;;;7.60;;
13331;SDS011;6735;51.456;12.626;2023-05-29T12:36:08;6.37;;;3.70;;
13331;SDS011;6735;51.456;12.626;2023-05-29T12:38:46;6.57;;;3.87;;
13331;SDS011;6735;51.456;12.626;2023-05-29T12:43:48;4.03;;;3.63;;
13331;SDS011;6735;51.456;12.626;2023-05-29T12:46:14;4.83;;;4.00;;
13331;SDS011;6735;51.456;12.626;2023-05-29T12:48:39;4.10;;;3.37;;
13331;SDS011;6735;51.456;12.626;2023-05-29T12:51:05;4.90;;;3.80;;
13331;SDS011;6735;51.456;12.626;2023-05-29T12:53:33;3.80;;;3.40;;
13331;SDS011;6735;51.456;12.626;2023-05-29T12:55:58;4.63;;;3.60;;
13331;SDS011;6735;51.456;12.626;2023-05-29T12:58:24;6.33;;;4.33;;
13331;SDS011;6735;51.456;12.626;2023-05-29T13:00:52;4.60;;;3.63;;
13331;SDS011;6735;51.456;12.626;2023-05-29T13:03:21;6.13;;;4.03;;
13331;SDS011;6735;51.456;12.626;2023-05-29T13:05:50;6.37;;;3.90;;
13331;SDS011;6735;51.456;12.626;2023-05-29T13:08:17;5.00;;;3.67;;
13331;SDS011;6735;51.456;12.626;2023-05-29T13:10:43;4.20;;;3.80;;
13331;SDS011;6735;51.456;12.626;2023-05-29T13:13:09;4.47;;;3.70;;
13331;SDS011;6735;51.456;12.626;2023-05-29T13:15:36;4.37;;;3.60;;
13331;SDS011;6735;51.456;12.626;2023-05-29T13:18:03;4.07;;;3.50;;
13331;SDS011;6735;51.456;12.626;2023-05-29T13:20:28;4.10;;;3.70;;
13331;SDS011;6735;51.456;12.626;2023-05-29T13:22:55;4.20;;;3.50;;
13331;SDS011;6735;51.456;12.626;2023-05-29T13:25:20;5.03;;;3.90;;
13331;SDS011;6735;51.456;12.626;2023-05-29T13:27:46;4.17;;;3.77;;
13331;SDS011;6735;51.456;12.626;2023-05-29T13:30:13;4.03;;;3.60;;
13331;SDS011;6735;51.456;12.626;2023-05-29T13:32:39;3.90;;;3.53;;
13331;SDS011;6735;51.456;12.626;2023-05-29T13:35:05;4.50;;;3.47;;
13331;SDS011;6735;51.456;12.626;2023-05-29T13:37:31;4.23;;;3.83;;
13331;SDS011;6735;51.456;12.626;2023-05-29T13:39:57;4.40;;;3.83;;
13331;SDS011;6735;51.456;12.626;2023-05-29T13:42:23;3.70;;;3.40;;
13331;SDS011;6735;51.456;12.626;2023-05-29T13:44:48;5.73;;;3.70;;
13331;SDS011;6735;51.456;12.626;2023-05-29T13:47:14;5.27;;;3.77;;
13331;SDS011;6735;51.456;12.626;2023-05-29T13:49:40;4.63;;;3.60;;
13331;SDS011;6735;51.456;12.626;2023-05-29T13:52:06;4.00;;;3.60;;
13331;SDS011;6735;51.456;12.626;2023-05-29T13:54:32;3.63;;;3.33;;
13331;SDS011;6735;51.456;12.626;2023-05-29T13:57:04;5.33;;;3.90;;
13331;SDS011;6735;51.456;12.626;2023-05-29T13:59:34;5.10;;;3.60;;
13331;SDS011;6735;51.456;12.626;2023-05-29T14:02:00;4.20;;;3.73;;
13331;SDS011;6735;51.456;12.626;2023-05-29T14:04:28;4.60;;;3.70;;
13331;SDS011;6735;51.456;12.626;2023-05-29T14:06:54;6.10;;;3.70;;
13331;SDS011;6735;51.456;12.626;2023-05-29T14:09:21;6.57;;;3.87;;
13331;SDS011;6735;51.456;12.626;2023-05-29T14:11:57;6.37;;;3.47;;
13331;SDS011;6735;51.456;12.626;2023-05-29T14:14:23;3.83;;;3.50;;
13331;SDS011;6735;51.456;12.626;2023-05-29T14:16:49;4.83;;;3.67;;
13331;SDS011;6735;51.456;12.626;2023-05-29T14:19:16;6.10;;;3.77;;
13331;SDS011;6735;51.456;12.626;2023-05-29T14:21:42;5.43;;;3.40;;
13331;SDS011;6735;51.456;12.626;2023-05-29T14:24:08;5.27;;;3.50;;
13331;SDS011;6735;51.456;12.626;2023-05-29T14:26:33;4.83;;;3.50;;
13331;SDS011;6735;51.456;12.626;2023-05-29T14:29:00;5.50;;;3.70;;
13331;SDS011;6735;51.456;12.626;2023-05-29T14:31:25;3.60;;;3.30;;
13331;SDS011;6735;51.456;12.626;2023-05-29T14:33:51;4.20;;;3.40;;
13331;SDS011;6735;51.456;12.626;2023-05-29T14:36:16;5.33;;;3.50;;
13331;SDS011;6735;51.456;12.626;2023-05-29T14:38:42;4.50;;;3.37;;
13331;SDS011;6735;51.456;12.626;2023-05-29T14:41:09;5.53;;;3.60;;
13331;SDS011;6735;51.456;12.626;2023-05-29T14:43:34;7.87;;;3.77;;
13331;SDS011;6735;51.456;12.626;2023-05-29T14:46:01;3.83;;;3.53;;
13331;SDS011;6735;51.456;12.626;2023-05-29T14:48:27;4.07;;;3.67;;
13331;SDS011;6735;51.456;12.626;2023-05-29T14:50:52;3.80;;;3.33;;
13331;SDS011;6735;51.456;12.626;2023-05-29T14:53:17;5.80;;;3.80;;
13331;SDS011;6735;51.456;12.626;2023-05-29T14:55:45;4.73;;;3.80;;
13331;SDS011;6735;51.456;12.626;2023-05-29T14:58:10;7.57;;;3.90;;
13331;SDS011;6735;51.456;12.626;2023-05-29T15:00:37;4.47;;;4.03;;
13331;SDS011;6735;51.456;12.626;2023-05-29T15:03:02;6.27;;;3.70;;
13331;SDS011;6735;51.456;12.626;2023-05-29T15:05:28;4.50;;;3.73;;